sensor_id;sensor_type;location;lat;lon;timestamp;P1;durP1;ratioP1;P2;durP2;ratioP2
27313;SDS011;14800;48.174;9.798;2023-04-08T00:00:33;4.82;;;4.10;;
27313;SDS011;14800;48.174;9.798;2023-04-08T00:02:59;5.10;;;4.00;;
27313;SDS011;14800;48.174;9.798;2023-04-08T00:05:26;4.25;;;3.80;;
27313;SDS011;14800;48.174;9.798;2023-04-08T00:07:51;4.00;;;3.60;;
27313;SDS011;14800;48.174;9.798;2023-04-08T00:10:17;4.40;;;3.95;;
27313;SDS011;14800;48.174;9.798;2023-04-08T00:12:43;4.20;;;3.83;;
27313;SDS011;14800;48.174;9.798;2023-04-08T00:15:09;4.07;;;3.75;;
27313;SDS011;14800;48.174;9.798;2023-04-08T00:17:35;4.28;;;3.42;;
27313;SDS011;14800;48.174;9.798;2023-04-08T00:20:00;4.43;;;3.60;;
27313;SDS011;14800;48.174;9.798;2023-04-08T00:22:26;4.30;;;3.90;;
27313;SDS011;14800;48.174;9.798;2023-04-08T00:24:52;4.40;;;3.55;;
27313;SDS011;14800;48.174;9.798;2023-04-08T00:27:18;4.25;;;3.75;;
27313;SDS011;14800;48.174;9.798;2023-04-08T00:29:43;4.20;;;3.80;;
27313;SDS011;14800;48.174;9.798;2023-04-08T00:32:09;4.20;;;3.80;;
27313;SDS011;14800;48.174;9.798;2023-04-08T00:34:34;4.63;;;4.15;;
27313;SDS011;14800;48.174;9.798;2023-04-08T00:37:01;4.07;;;3.67;;
27313;SDS011;14800;48.174;9.798;2023-04-08T00:39:27;4.55;;;4.15;;
27313;SDS011;14800;48.174;9.798;2023-04-08T00:41:52;4.63;;;3.70;;
27313;SDS011;14800;48.174;9.798;2023-04-08T00:44:18;8.23;;;4.28;;
27313;SDS011;14800;48.174;9.798;2023-04-08T00:46:44;4.57;;;3.97;;
27313;SDS011;14800;48.174;9.798;2023-04-08T00:49:10;4.13;;;3.53;;
27313;SDS011;14800;48.174;9.798;2023-04-08T00:51:36;4.20;;;3.80;;
27313;SDS011;14800;48.174;9.798;2023-04-08T00:54:02;4.97;;;3.90;;
27313;SDS011;14800;48.174;9.798;2023-04-08T00:56:32;4.25;;;3.90;;
27313;SDS011;14800;48.174;9.798;2023-04-08T00:58:59;4.07;;;3.75;;
27313;SDS011;14800;48.174;9.798;2023-04-08T01:10:12;5.50;;;4.15;;
27313;SDS011;14800;48.174;9.798;2023-04-08T01:12:54;4.20;;;3.80;;
27313;SDS011;14800;48.174;9.798;2023-04-08T01:15:21;4.13;;;3.72;;
27313;SDS011;14800;48.174;9.798;2023-04-08T01:17:51;4.40;;;4.00;;
27313;SDS011;14800;48.174;9.798;2023-04-08T01:20:18;4.45;;;3.75;;
27313;SDS011;14800;48.174;9.798;2023-04-08T01:25:29;3.72;;;3.42;;
27313;SDS011;14800;48.174;9.798;2023-04-08T01:27:56;4.18;;;3.70;;
27313;SDS011;14800;48.174;9.798;2023-04-08T01:30:24;5.13;;;4.00;;
27313;SDS011;14800;48.174;9.798;2023-04-08T01:32:53;4.20;;;3.83;;
27313;SDS011;14800;48.174;9.798;2023-04-08T01:35:19;3.58;;;3.28;;
27313;SDS011;14800;48.174;9.798;2023-04-08T01:37:45;3.92;;;3.60;;
27313;SDS011;14800;48.174;9.798;2023-04-08T01:40:14;7.18;;;3.80;;
27313;SDS011;14800;48.174;9.798;2023-04-08T01:42:42;3.97;;;3.67;;
27313;SDS011;14800;48.174;9.798;2023-04-08T01:45:10;4.15;;;3.65;;
27313;SDS011;14800;48.174;9.798;2023-04-08T01:47:36;4.30;;;3.90;;
27313;SDS011;14800;48.174;9.798;2023-04-08T01:50:03;3.90;;;3.60;;
27313;SDS011;14800;48.174;9.798;2023-04-08T01:52:31;4.60;;;4.18;;
27313;SDS011;14800;48.174;9.798;2023-04-08T01:54:59;4.35;;;3.92;;
27313;SDS011;14800;48.174;9.798;2023-04-08T01:57:26;4.53;;;4.07;;
27313;SDS011;14800;48.174;9.798;2023-04-08T01:59:55;4.70;;;4.20;;
27313;SDS011;14800;48.174;9.798;2023-04-08T02:02:25;5.25;;;4.75;;
27313;SDS011;14800;48.174;9.798;2023-04-08T02:04:52;4.80;;;4.30;;
27313;SDS011;14800;48.174;9.798;2023-04-08T02:07:19;5.13;;;4.63;;
27313;SDS011;14800;48.174;9.798;2023-04-08T02:09:45;5.82;;;4.45;;
27313;SDS011;14800;48.174;9.798;2023-04-08T02:12:11;5.50;;;5.00;;
27313;SDS011;14800;48.174;9.798;2023-04-08T02:14:36;5.47;;;4.82;;
27313;SDS011;14800;48.174;9.798;2023-04-08T02:17:10;5.28;;;4.78;;
27313;SDS011;14800;48.174;9.798;2023-04-08T02:20:25;5.50;;;4.88;;
27313;SDS011;14800;48.174;9.798;2023-04-08T02:22:41;5.45;;;4.95;;
27313;SDS011;14800;48.174;9.798;2023-04-08T02:25:09;6.03;;;5.10;;
27313;SDS011;14800;48.174;9.798;2023-04-08T02:27:38;5.85;;;5.25;;
27313;SDS011;14800;48.174;9.798;2023-04-08T02:30:05;7.10;;;5.93;;
27313;SDS011;14800;48.174;9.798;2023-04-08T02:32:32;6.88;;;5.82;;
27313;SDS011;14800;48.174;9.798;2023-04-08T02:34:59;7.65;;;6.63;;
27313;SDS011;14800;48.174;9.798;2023-04-08T02:37:27;7.10;;;6.38;;
27313;SDS011;14800;48.174;9.798;2023-04-08T02:39:53;7.65;;;6.85;;
27313;SDS011;14800;48.174;9.798;2023-04-08T02:42:19;7.95;;;7.03;;
27313;SDS011;14800;48.174;9.798;2023-04-08T02:44:45;9.10;;;7.50;;
27313;SDS011;14800;48.174;9.798;2023-04-08T02:47:10;8.80;;;7.53;;
27313;SDS011;14800;48.174;9.798;2023-04-08T02:49:36;9.60;;;7.88;;
27313;SDS011;14800;48.174;9.798;2023-04-08T02:52:01;8.50;;;7.32;;
27313;SDS011;14800;48.174;9.798;2023-04-08T02:54:27;8.35;;;7.53;;
27313;SDS011;14800;48.174;9.798;2023-04-08T02:56:53;9.15;;;7.95;;
27313;SDS011;14800;48.174;9.798;2023-04-08T02:59:18;8.30;;;7.30;;
27313;SDS011;14800;48.174;9.798;2023-04-08T03:01:44;9.52;;;7.93;;
27313;SDS011;14800;48.174;9.798;2023-04-08T03:04:09;9.38;;;8.05;;
27313;SDS011;14800;48.174;9.798;2023-04-08T03:06:35;9.63;;;8.18;;
27313;SDS011;14800;48.174;9.798;2023-04-08T03:09:00;9.35;;;8.20;;
27313;SDS011;14800;48.174;9.798;2023-04-08T03:11:26;11.02;;;8.88;;
27313;SDS011;14800;48.174;9.798;2023-04-08T03:13:52;11.02;;;8.85;;
27313;SDS011;14800;48.174;9.798;2023-04-08T03:16:17;10.30;;;8.93;;
27313;SDS011;14800;48.174;9.798;2023-04-08T03:18:43;11.57;;;9.30;;
27313;SDS011;14800;48.174;9.798;2023-04-08T03:21:08;12.15;;;9.50;;
27313;SDS011;14800;48.174;9.798;2023-04-08T03:23:34;10.57;;;9.18;;
27313;SDS011;14800;48.174;9.798;2023-04-08T03:26:00;10.07;;;8.52;;
27313;SDS011;14800;48.174;9.798;2023-04-08T03:28:25;10.90;;;9.27;;
27313;SDS011;14800;48.174;9.798;2023-04-08T03:30:51;10.88;;;9.32;;
27313;SDS011;14800;48.174;9.798;2023-04-08T03:33:17;11.52;;;9.75;;
27313;SDS011;14800;48.174;9.798;2023-04-08T03:35:42;13.15;;;10.65;;
27313;SDS011;14800;48.174;9.798;2023-04-08T03:38:08;11.98;;;10.10;;
27313;SDS011;14800;48.174;9.798;2023-04-08T03:40:33;11.27;;;9.70;;
27313;SDS011;14800;48.174;9.798;2023-04-08T03:42:59;13.00;;;10.27;;
27313;SDS011;14800;48.174;9.798;2023-04-08T03:45:25;11.52;;;9.75;;
27313;SDS011;14800;48.174;9.798;2023-04-08T03:47:50;12.38;;;10.00;;
27313;SDS011;14800;48.174;9.798;2023-04-08T03:50:16;12.75;;;10.20;;
27313;SDS011;14800;48.174;9.798;2023-04-08T03:52:41;12.77;;;10.77;;
27313;SDS011;14800;48.174;9.798;2023-04-08T03:55:07;12.60;;;10.05;;
27313;SDS011;14800;48.174;9.798;2023-04-08T03:57:33;12.88;;;10.57;;
27313;SDS011;14800;48.174;9.798;2023-04-08T03:59:58;13.63;;;10.45;;
27313;SDS011;14800;48.174;9.798;2023-04-08T04:02:24;13.35;;;10.25;;
27313;SDS011;14800;48.174;9.798;2023-04-08T04:04:50;12.90;;;10.57;;
27313;SDS011;14800;48.174;9.798;2023-04-08T04:07:15;13.18;;;10.13;;
27313;SDS011;14800;48.174;9.798;2023-04-08T04:09:41;17.70;;;11.50;;
27313;SDS011;14800;48.174;9.798;2023-04-08T04:12:06;14.05;;;11.25;;
27313;SDS011;14800;48.174;9.798;2023-04-08T04:14:32;13.02;;;10.93;;
27313;SDS011;14800;48.174;9.798;2023-04-08T04:16:57;12.88;;;10.02;;
27313;SDS011;14800;48.174;9.798;2023-04-08T04:19:23;13.80;;;10.57;;
27313;SDS011;14800;48.174;9.798;2023-04-08T04:21:48;13.63;;;10.63;;
27313;SDS011;14800;48.174;9.798;2023-04-08T04:24:14;12.80;;;10.05;;
27313;SDS011;14800;48.174;9.798;2023-04-08T04:26:40;10.95;;;8.98;;
27313;SDS011;14800;48.174;9.798;2023-04-08T04:29:06;11.77;;;9.25;;
27313;SDS011;14800;48.174;9.798;2023-04-08T04:31:31;11.48;;;9.40;;
27313;SDS011;14800;48.174;9.798;2023-04-08T04:33:57;11.45;;;9.15;;
27313;SDS011;14800;48.174;9.798;2023-04-08T04:36:23;11.75;;;9.02;;
27313;SDS011;14800;48.174;9.798;2023-04-08T04:38:49;12.95;;;9.52;;
27313;SDS011;14800;48.174;9.798;2023-04-08T04:41:15;12.10;;;9.10;;
27313;SDS011;14800;48.174;9.798;2023-04-08T04:43:41;13.52;;;9.18;;
27313;SDS011;14800;48.174;9.798;2023-04-08T04:46:06;10.35;;;8.38;;
27313;SDS011;14800;48.174;9.798;2023-04-08T04:48:33;13.30;;;9.65;;
27313;SDS011;14800;48.174;9.798;2023-04-08T04:50:59;13.85;;;10.48;;
27313;SDS011;14800;48.174;9.798;2023-04-08T04:53:27;12.23;;;9.95;;
27313;SDS011;14800;48.174;9.798;2023-04-08T04:55:53;12.82;;;10.00;;
27313;SDS011;14800;48.174;9.798;2023-04-08T04:58:19;13.20;;;10.52;;
27313;SDS011;14800;48.174;9.798;2023-04-08T05:00:45;14.65;;;11.43;;
27313;SDS011;14800;48.174;9.798;2023-04-08T05:03:11;12.02;;;10.55;;
27313;SDS011;14800;48.174;9.798;2023-04-08T05:05:37;12.68;;;10.50;;
27313;SDS011;14800;48.174;9.798;2023-04-08T05:08:03;14.10;;;11.27;;
27313;SDS011;14800;48.174;9.798;2023-04-08T05:10:28;13.02;;;10.25;;
27313;SDS011;14800;48.174;9.798;2023-04-08T05:12:54;13.27;;;10.73;;
27313;SDS011;14800;48.174;9.798;2023-04-08T05:15:20;11.52;;;9.77;;
27313;SDS011;14800;48.174;9.798;2023-04-08T05:17:45;11.40;;;10.20;;
27313;SDS011;14800;48.174;9.798;2023-04-08T05:20:11;11.93;;;9.98;;
27313;SDS011;14800;48.174;9.798;2023-04-08T05:22:37;12.48;;;10.10;;
27313;SDS011;14800;48.174;9.798;2023-04-08T05:25:03;13.18;;;10.63;;
27313;SDS011;14800;48.174;9.798;2023-04-08T05:27:29;12.23;;;10.18;;
27313;SDS011;14800;48.174;9.798;2023-04-08T05:29:55;12.70;;;10.38;;
27313;SDS011;14800;48.174;9.798;2023-04-08T05:32:21;12.10;;;10.27;;
27313;SDS011;14800;48.174;9.798;2023-04-08T05:34:47;12.57;;;10.32;;
27313;SDS011;14800;48.174;9.798;2023-04-08T05:37:12;15.60;;;11.57;;
27313;SDS011;14800;48.174;9.798;2023-04-08T05:39:38;13.65;;;11.20;;
27313;SDS011;14800;48.174;9.798;2023-04-08T05:42:03;14.40;;;11.48;;
27313;SDS011;14800;48.174;9.798;2023-04-08T05:44:29;13.73;;;11.95;;
27313;SDS011;14800;48.174;9.798;2023-04-08T05:46:55;14.52;;;12.02;;
27313;SDS011;14800;48.174;9.798;2023-04-08T05:49:21;14.30;;;11.10;;
27313;SDS011;14800;48.174;9.798;2023-04-08T05:51:47;12.25;;;10.35;;
27313;SDS011;14800;48.174;9.798;2023-04-08T05:54:13;13.75;;;11.02;;
27313;SDS011;14800;48.174;9.798;2023-04-08T05:56:39;13.48;;;11.20;;
27313;SDS011;14800;48.174;9.798;2023-04-08T05:59:04;13.45;;;11.30;;
27313;SDS011;14800;48.174;9.798;2023-04-08T06:01:30;13.00;;;11.27;;
27313;SDS011;14800;48.174;9.798;2023-04-08T06:03:55;15.48;;;11.32;;
27313;SDS011;14800;48.174;9.798;2023-04-08T06:06:21;12.80;;;10.43;;
27313;SDS011;14800;48.174;9.798;2023-04-08T06:08:47;12.73;;;10.40;;
27313;SDS011;14800;48.174;9.798;2023-04-08T06:11:13;12.55;;;10.95;;
27313;SDS011;14800;48.174;9.798;2023-04-08T06:13:39;14.00;;;11.10;;
27313;SDS011;14800;48.174;9.798;2023-04-08T06:16:11;19.40;;;14.75;;
27313;SDS011;14800;48.174;9.798;2023-04-08T06:18:37;13.43;;;11.55;;
27313;SDS011;14800;48.174;9.798;2023-04-08T06:21:03;13.35;;;11.02;;
27313;SDS011;14800;48.174;9.798;2023-04-08T06:23:28;13.05;;;11.15;;
27313;SDS011;14800;48.174;9.798;2023-04-08T06:25:54;12.80;;;10.80;;
27313;SDS011;14800;48.174;9.798;2023-04-08T06:28:20;12.73;;;10.85;;
27313;SDS011;14800;48.174;9.798;2023-04-08T06:30:45;13.98;;;11.70;;
27313;SDS011;14800;48.174;9.798;2023-04-08T06:33:11;15.07;;;12.20;;
27313;SDS011;14800;48.174;9.798;2023-04-08T06:35:36;13.93;;;11.90;;
27313;SDS011;14800;48.174;9.798;2023-04-08T06:38:02;15.82;;;12.27;;
27313;SDS011;14800;48.174;9.798;2023-04-08T06:40:28;14.60;;;12.32;;
27313;SDS011;14800;48.174;9.798;2023-04-08T06:42:54;18.73;;;12.82;;
27313;SDS011;14800;48.174;9.798;2023-04-08T06:45:19;15.35;;;12.48;;
27313;SDS011;14800;48.174;9.798;2023-04-08T06:47:45;14.13;;;12.05;;
27313;SDS011;14800;48.174;9.798;2023-04-08T06:50:11;15.63;;;12.38;;
27313;SDS011;14800;48.174;9.798;2023-04-08T06:52:36;15.30;;;12.35;;
27313;SDS011;14800;48.174;9.798;2023-04-08T06:55:02;13.82;;;11.25;;
27313;SDS011;14800;48.174;9.798;2023-04-08T06:57:27;14.02;;;11.65;;
27313;SDS011;14800;48.174;9.798;2023-04-08T06:59:53;13.98;;;11.90;;
27313;SDS011;14800;48.174;9.798;2023-04-08T07:02:20;13.77;;;11.52;;
27313;SDS011;14800;48.174;9.798;2023-04-08T07:04:46;14.13;;;11.77;;
27313;SDS011;14800;48.174;9.798;2023-04-08T07:07:12;14.30;;;10.65;;
27313;SDS011;14800;48.174;9.798;2023-04-08T07:09:38;13.52;;;11.27;;
27313;SDS011;14800;48.174;9.798;2023-04-08T07:12:05;12.93;;;10.75;;
27313;SDS011;14800;48.174;9.798;2023-04-08T07:14:31;13.85;;;11.07;;
27313;SDS011;14800;48.174;9.798;2023-04-08T07:16:56;12.25;;;10.40;;
27313;SDS011;14800;48.174;9.798;2023-04-08T07:19:22;12.93;;;10.75;;
27313;SDS011;14800;48.174;9.798;2023-04-08T07:21:48;12.75;;;10.43;;
27313;SDS011;14800;48.174;9.798;2023-04-08T07:24:14;11.52;;;9.52;;
27313;SDS011;14800;48.174;9.798;2023-04-08T07:26:40;12.27;;;10.43;;
27313;SDS011;14800;48.174;9.798;2023-04-08T07:29:06;11.55;;;10.07;;
27313;SDS011;14800;48.174;9.798;2023-04-08T07:31:31;11.85;;;10.02;;
27313;SDS011;14800;48.174;9.798;2023-04-08T07:33:57;11.93;;;9.95;;
27313;SDS011;14800;48.174;9.798;2023-04-08T07:36:23;12.52;;;9.55;;
27313;SDS011;14800;48.174;9.798;2023-04-08T07:38:48;9.30;;;8.02;;
27313;SDS011;14800;48.174;9.798;2023-04-08T07:41:14;9.60;;;8.43;;
27313;SDS011;14800;48.174;9.798;2023-04-08T07:43:40;9.13;;;8.00;;
27313;SDS011;14800;48.174;9.798;2023-04-08T07:46:06;9.70;;;8.23;;
27313;SDS011;14800;48.174;9.798;2023-04-08T07:48:32;10.38;;;8.43;;
27313;SDS011;14800;48.174;9.798;2023-04-08T07:51:05;10.20;;;7.88;;
27313;SDS011;14800;48.174;9.798;2023-04-08T07:53:31;9.82;;;8.68;;
27313;SDS011;14800;48.174;9.798;2023-04-08T07:55:58;9.88;;;8.25;;
27313;SDS011;14800;48.174;9.798;2023-04-08T07:58:24;8.93;;;7.95;;
27313;SDS011;14800;48.174;9.798;2023-04-08T08:00:50;9.35;;;7.78;;
27313;SDS011;14800;48.174;9.798;2023-04-08T08:03:15;9.60;;;8.05;;
27313;SDS011;14800;48.174;9.798;2023-04-08T08:05:41;9.40;;;7.90;;
27313;SDS011;14800;48.174;9.798;2023-04-08T08:08:07;9.88;;;8.32;;
27313;SDS011;14800;48.174;9.798;2023-04-08T08:10:35;10.35;;;7.65;;
27313;SDS011;14800;48.174;9.798;2023-04-08T08:13:04;9.02;;;7.95;;
27313;SDS011;14800;48.174;9.798;2023-04-08T08:15:30;9.38;;;8.07;;
27313;SDS011;14800;48.174;9.798;2023-04-08T08:17:56;7.85;;;7.05;;
27313;SDS011;14800;48.174;9.798;2023-04-08T08:20:22;8.02;;;7.22;;
27313;SDS011;14800;48.174;9.798;2023-04-08T08:22:47;8.40;;;7.53;;
27313;SDS011;14800;48.174;9.798;2023-04-08T08:25:13;11.10;;;8.65;;
27313;SDS011;14800;48.174;9.798;2023-04-08T08:27:38;9.82;;;8.52;;
27313;SDS011;14800;48.174;9.798;2023-04-08T08:30:06;9.18;;;7.93;;
27313;SDS011;14800;48.174;9.798;2023-04-08T08:32:33;11.52;;;9.30;;
27313;SDS011;14800;48.174;9.798;2023-04-08T08:34:59;10.50;;;8.80;;
27313;SDS011;14800;48.174;9.798;2023-04-08T08:37:25;9.50;;;8.15;;
27313;SDS011;14800;48.174;9.798;2023-04-08T08:39:50;10.05;;;8.18;;
27313;SDS011;14800;48.174;9.798;2023-04-08T08:42:20;9.57;;;8.40;;
27313;SDS011;14800;48.174;9.798;2023-04-08T08:44:47;9.63;;;8.30;;
27313;SDS011;14800;48.174;9.798;2023-04-08T08:47:12;9.15;;;8.13;;
27313;SDS011;14800;48.174;9.798;2023-04-08T08:49:38;8.63;;;7.72;;
27313;SDS011;14800;48.174;9.798;2023-04-08T08:52:04;9.13;;;8.13;;
27313;SDS011;14800;48.174;9.798;2023-04-08T08:54:30;9.32;;;8.23;;
27313;SDS011;14800;48.174;9.798;2023-04-08T08:56:56;9.27;;;8.38;;
27313;SDS011;14800;48.174;9.798;2023-04-08T08:59:22;8.73;;;7.82;;
27313;SDS011;14800;48.174;9.798;2023-04-08T09:01:48;8.85;;;7.93;;
27313;SDS011;14800;48.174;9.798;2023-04-08T09:04:17;10.40;;;8.40;;
27313;SDS011;14800;48.174;9.798;2023-04-08T09:06:44;8.60;;;7.75;;
27313;SDS011;14800;48.174;9.798;2023-04-08T09:09:11;9.63;;;8.57;;
27313;SDS011;14800;48.174;9.798;2023-04-08T09:11:41;9.38;;;8.10;;
27313;SDS011;14800;48.174;9.798;2023-04-08T09:19:09;9.05;;;8.13;;
27313;SDS011;14800;48.174;9.798;2023-04-08T09:21:35;12.20;;;9.45;;
27313;SDS011;14800;48.174;9.798;2023-04-08T09:24:02;13.93;;;10.75;;
27313;SDS011;14800;48.174;9.798;2023-04-08T09:26:27;15.07;;;11.90;;
27313;SDS011;14800;48.174;9.798;2023-04-08T09:29:00;17.00;;;11.95;;
27313;SDS011;14800;48.174;9.798;2023-04-08T09:31:28;14.30;;;10.85;;
27313;SDS011;14800;48.174;9.798;2023-04-08T09:33:56;14.23;;;11.15;;
27313;SDS011;14800;48.174;9.798;2023-04-08T09:36:23;14.80;;;12.13;;
27313;SDS011;14800;48.174;9.798;2023-04-08T09:38:51;16.00;;;12.18;;
27313;SDS011;14800;48.174;9.798;2023-04-08T09:41:17;15.88;;;12.43;;
27313;SDS011;14800;48.174;9.798;2023-04-08T09:43:48;15.80;;;12.48;;
27313;SDS011;14800;48.174;9.798;2023-04-08T09:46:16;16.05;;;12.57;;
27313;SDS011;14800;48.174;9.798;2023-04-08T09:48:49;14.15;;;12.15;;
27313;SDS011;14800;48.174;9.798;2023-04-08T09:51:24;15.93;;;11.85;;
27313;SDS011;14800;48.174;9.798;2023-04-08T09:53:58;14.23;;;11.85;;
27313;SDS011;14800;48.174;9.798;2023-04-08T09:56:29;16.65;;;12.27;;
27313;SDS011;14800;48.174;9.798;2023-04-08T09:59:12;13.95;;;11.77;;
27313;SDS011;14800;48.174;9.798;2023-04-08T10:01:43;13.95;;;11.55;;
27313;SDS011;14800;48.174;9.798;2023-04-08T10:04:14;14.27;;;11.25;;
27313;SDS011;14800;48.174;9.798;2023-04-08T10:06:42;13.85;;;11.43;;
27313;SDS011;14800;48.174;9.798;2023-04-08T10:09:07;13.82;;;11.27;;
27313;SDS011;14800;48.174;9.798;2023-04-08T10:11:34;13.77;;;11.27;;
27313;SDS011;14800;48.174;9.798;2023-04-08T10:14:00;14.63;;;11.07;;
27313;SDS011;14800;48.174;9.798;2023-04-08T10:16:26;13.85;;;11.10;;
27313;SDS011;14800;48.174;9.798;2023-04-08T10:18:53;14.00;;;11.32;;
27313;SDS011;14800;48.174;9.798;2023-04-08T10:21:30;14.20;;;11.75;;
27313;SDS011;14800;48.174;9.798;2023-04-08T10:23:59;13.88;;;11.32;;
27313;SDS011;14800;48.174;9.798;2023-04-08T10:26:48;14.82;;;12.15;;
27313;SDS011;14800;48.174;9.798;2023-04-08T10:31:43;14.10;;;11.75;;
27313;SDS011;14800;48.174;9.798;2023-04-08T10:34:17;14.43;;;12.18;;
27313;SDS011;14800;48.174;9.798;2023-04-08T10:36:51;14.43;;;11.90;;
27313;SDS011;14800;48.174;9.798;2023-04-08T10:39:17;14.15;;;11.93;;
27313;SDS011;14800;48.174;9.798;2023-04-08T10:41:43;14.20;;;11.20;;
27313;SDS011;14800;48.174;9.798;2023-04-08T10:44:24;14.50;;;12.02;;
27313;SDS011;14800;48.174;9.798;2023-04-08T10:46:52;12.73;;;10.80;;
27313;SDS011;14800;48.174;9.798;2023-04-08T10:49:19;14.85;;;11.43;;
27313;SDS011;14800;48.174;9.798;2023-04-08T10:51:46;14.98;;;11.80;;
27313;SDS011;14800;48.174;9.798;2023-04-08T10:54:16;15.25;;;11.43;;
27313;SDS011;14800;48.174;9.798;2023-04-08T10:56:42;12.57;;;10.57;;
27313;SDS011;14800;48.174;9.798;2023-04-08T10:59:17;12.77;;;10.17;;
27313;SDS011;14800;48.174;9.798;2023-04-08T11:01:53;14.63;;;11.25;;
27313;SDS011;14800;48.174;9.798;2023-04-08T11:04:19;14.02;;;11.25;;
27313;SDS011;14800;48.174;9.798;2023-04-08T11:06:47;13.07;;;10.65;;
27313;SDS011;14800;48.174;9.798;2023-04-08T11:09:13;13.32;;;10.85;;
27313;SDS011;14800;48.174;9.798;2023-04-08T11:11:41;13.30;;;11.18;;
27313;SDS011;14800;48.174;9.798;2023-04-08T11:14:08;12.80;;;10.88;;
27313;SDS011;14800;48.174;9.798;2023-04-08T11:16:33;15.48;;;12.55;;
27313;SDS011;14800;48.174;9.798;2023-04-08T11:19:01;13.55;;;10.93;;
27313;SDS011;14800;48.174;9.798;2023-04-08T11:21:29;13.75;;;10.93;;
27313;SDS011;14800;48.174;9.798;2023-04-08T11:24:05;12.85;;;10.50;;
27313;SDS011;14800;48.174;9.798;2023-04-08T11:26:31;12.68;;;10.73;;
27313;SDS011;14800;48.174;9.798;2023-04-08T11:28:57;13.93;;;10.27;;
27313;SDS011;14800;48.174;9.798;2023-04-08T11:31:24;11.88;;;10.23;;
27313;SDS011;14800;48.174;9.798;2023-04-08T11:33:52;13.32;;;10.90;;
27313;SDS011;14800;48.174;9.798;2023-04-08T11:36:18;16.30;;;12.57;;
27313;SDS011;14800;48.174;9.798;2023-04-08T11:38:45;14.23;;;11.50;;
27313;SDS011;14800;48.174;9.798;2023-04-08T11:41:12;12.80;;;10.63;;
27313;SDS011;14800;48.174;9.798;2023-04-08T11:43:38;12.75;;;11.05;;
27313;SDS011;14800;48.174;9.798;2023-04-08T11:46:08;13.05;;;10.73;;
27313;SDS011;14800;48.174;9.798;2023-04-08T11:48:35;13.77;;;11.35;;
27313;SDS011;14800;48.174;9.798;2023-04-08T11:51:03;13.73;;;11.43;;
27313;SDS011;14800;48.174;9.798;2023-04-08T11:53:36;14.10;;;11.50;;
27313;SDS011;14800;48.174;9.798;2023-04-08T11:56:23;12.40;;;11.00;;
27313;SDS011;14800;48.174;9.798;2023-04-08T11:58:48;11.77;;;10.32;;
27313;SDS011;14800;48.174;9.798;2023-04-08T12:01:15;14.32;;;10.80;;
27313;SDS011;14800;48.174;9.798;2023-04-08T12:04:13;13.23;;;11.52;;
27313;SDS011;14800;48.174;9.798;2023-04-08T12:06:34;13.90;;;10.57;;
27313;SDS011;14800;48.174;9.798;2023-04-08T12:09:00;17.08;;;12.30;;
27313;SDS011;14800;48.174;9.798;2023-04-08T12:11:25;14.88;;;11.02;;
27313;SDS011;14800;48.174;9.798;2023-04-08T12:13:51;14.65;;;11.75;;
27313;SDS011;14800;48.174;9.798;2023-04-08T12:16:17;13.48;;;11.15;;
27313;SDS011;14800;48.174;9.798;2023-04-08T12:18:43;12.43;;;10.30;;
27313;SDS011;14800;48.174;9.798;2023-04-08T12:21:09;13.15;;;11.40;;
27313;SDS011;14800;48.174;9.798;2023-04-08T12:23:35;14.75;;;11.02;;
27313;SDS011;14800;48.174;9.798;2023-04-08T12:26:00;14.80;;;10.90;;
27313;SDS011;14800;48.174;9.798;2023-04-08T12:28:26;16.55;;;11.70;;
27313;SDS011;14800;48.174;9.798;2023-04-08T12:30:51;12.35;;;10.63;;
27313;SDS011;14800;48.174;9.798;2023-04-08T12:33:17;13.07;;;11.07;;
27313;SDS011;14800;48.174;9.798;2023-04-08T12:35:43;13.82;;;11.27;;
27313;SDS011;14800;48.174;9.798;2023-04-08T12:38:08;12.82;;;11.25;;
27313;SDS011;14800;48.174;9.798;2023-04-08T12:40:34;14.02;;;11.63;;
27313;SDS011;14800;48.174;9.798;2023-04-08T12:43:00;12.73;;;11.02;;
27313;SDS011;14800;48.174;9.798;2023-04-08T12:45:25;14.15;;;11.50;;
27313;SDS011;14800;48.174;9.798;2023-04-08T12:47:51;13.60;;;10.95;;
27313;SDS011;14800;48.174;9.798;2023-04-08T12:50:16;12.82;;;11.48;;
27313;SDS011;14800;48.174;9.798;2023-04-08T12:52:42;12.52;;;11.23;;
27313;SDS011;14800;48.174;9.798;2023-04-08T12:55:08;12.75;;;11.15;;
27313;SDS011;14800;48.174;9.798;2023-04-08T12:57:34;15.27;;;11.98;;
27313;SDS011;14800;48.174;9.798;2023-04-08T12:59:59;15.02;;;11.98;;
27313;SDS011;14800;48.174;9.798;2023-04-08T13:02:25;12.95;;;11.55;;
27313;SDS011;14800;48.174;9.798;2023-04-08T13:04:51;13.18;;;11.65;;
27313;SDS011;14800;48.174;9.798;2023-04-08T13:07:17;16.48;;;12.23;;
27313;SDS011;14800;48.174;9.798;2023-04-08T13:09:43;14.00;;;11.20;;
27313;SDS011;14800;48.174;9.798;2023-04-08T13:12:10;17.73;;;12.45;;
27313;SDS011;14800;48.174;9.798;2023-04-08T13:14:36;13.88;;;11.75;;
27313;SDS011;14800;48.174;9.798;2023-04-08T13:17:02;13.57;;;11.27;;
27313;SDS011;14800;48.174;9.798;2023-04-08T13:19:28;12.75;;;11.07;;
27313;SDS011;14800;48.174;9.798;2023-04-08T13:21:53;14.65;;;10.93;;
27313;SDS011;14800;48.174;9.798;2023-04-08T13:24:19;13.18;;;11.40;;
27313;SDS011;14800;48.174;9.798;2023-04-08T13:26:45;13.93;;;11.80;;
27313;SDS011;14800;48.174;9.798;2023-04-08T13:29:10;12.80;;;10.73;;
27313;SDS011;14800;48.174;9.798;2023-04-08T13:31:36;13.32;;;10.55;;
27313;SDS011;14800;48.174;9.798;2023-04-08T13:34:01;12.73;;;10.45;;
27313;SDS011;14800;48.174;9.798;2023-04-08T13:36:27;12.50;;;11.15;;
27313;SDS011;14800;48.174;9.798;2023-04-08T13:38:52;13.93;;;11.25;;
27313;SDS011;14800;48.174;9.798;2023-04-08T13:41:18;12.50;;;11.07;;
27313;SDS011;14800;48.174;9.798;2023-04-08T13:43:45;13.65;;;11.20;;
27313;SDS011;14800;48.174;9.798;2023-04-08T13:46:11;13.10;;;11.65;;
27313;SDS011;14800;48.174;9.798;2023-04-08T13:48:36;14.98;;;12.00;;
27313;SDS011;14800;48.174;9.798;2023-04-08T13:51:02;14.07;;;11.98;;
27313;SDS011;14800;48.174;9.798;2023-04-08T13:53:27;14.63;;;12.13;;
27313;SDS011;14800;48.174;9.798;2023-04-08T13:55:53;14.10;;;12.25;;
27313;SDS011;14800;48.174;9.798;2023-04-08T13:58:19;14.10;;;12.40;;
27313;SDS011;14800;48.174;9.798;2023-04-08T14:00:48;14.18;;;12.68;;
27313;SDS011;14800;48.174;9.798;2023-04-08T14:03:15;14.60;;;12.35;;
27313;SDS011;14800;48.174;9.798;2023-04-08T14:05:41;15.80;;;13.32;;
27313;SDS011;14800;48.174;9.798;2023-04-08T14:08:07;13.23;;;11.82;;
27313;SDS011;14800;48.174;9.798;2023-04-08T14:10:33;13.80;;;12.07;;
27313;SDS011;14800;48.174;9.798;2023-04-08T14:12:59;15.30;;;12.80;;
27313;SDS011;14800;48.174;9.798;2023-04-08T14:15:25;16.08;;;13.13;;
27313;SDS011;14800;48.174;9.798;2023-04-08T14:17:51;13.32;;;11.85;;
27313;SDS011;14800;48.174;9.798;2023-04-08T14:20:17;14.77;;;12.50;;
27313;SDS011;14800;48.174;9.798;2023-04-08T14:22:42;15.48;;;12.80;;
27313;SDS011;14800;48.174;9.798;2023-04-08T14:25:08;16.15;;;12.45;;
27313;SDS011;14800;48.174;9.798;2023-04-08T14:27:34;15.85;;;12.60;;
27313;SDS011;14800;48.174;9.798;2023-04-08T14:29:59;15.73;;;12.63;;
27313;SDS011;14800;48.174;9.798;2023-04-08T14:32:25;14.73;;;12.85;;
27313;SDS011;14800;48.174;9.798;2023-04-08T14:34:50;13.93;;;12.35;;
27313;SDS011;14800;48.174;9.798;2023-04-08T14:37:16;14.30;;;12.10;;
27313;SDS011;14800;48.174;9.798;2023-04-08T14:39:42;14.32;;;12.00;;
27313;SDS011;14800;48.174;9.798;2023-04-08T14:42:08;13.57;;;11.82;;
27313;SDS011;14800;48.174;9.798;2023-04-08T14:44:34;17.10;;;12.93;;
27313;SDS011;14800;48.174;9.798;2023-04-08T14:47:00;14.68;;;12.18;;